createdAt,value
2022-07-26T00:00:39.047Z,89.53
2022-07-26T00:05:40.214Z,90.37
2022-07-26T00:10:41.329Z,90.48
2022-07-26T00:15:43.463Z,89.48
2022-07-26T00:20:42.573Z,89.18
2022-07-26T00:25:44.678Z,90.37
2022-07-26T00:30:43.923Z,89.37
2022-07-26T00:35:45.011Z,90.82
2022-07-26T00:40:47.161Z,92.91
2022-07-26T00:45:46.351Z,95.47
2022-07-26T00:50:47.450Z,94.31
2022-07-26T00:55:48.588Z,94.62
2022-07-26T01:00:49.853Z,90.56
2022-07-26T01:05:51.037Z,91.20
2022-07-26T01:10:53.216Z,94.71
2022-07-26T01:15:52.400Z,97.52
2022-07-26T01:20:54.501Z,98.62
2022-07-26T01:25:54.601Z,99.77
2022-07-26T01:30:53.645Z,99.99
2022-07-26T01:35:54.737Z,99.99
2022-07-26T01:40:56.840Z,99.72
2022-07-26T01:45:57.013Z,99.99
2022-07-26T01:50:57.207Z,99.99
2022-07-26T01:55:56.310Z,99.99
2022-07-26T02:00:58.420Z,99.99
2022-07-26T02:05:57.551Z,99.99
2022-07-26T02:10:59.692Z,99.99
2022-07-26T02:15:58.915Z,99.99
2022-07-26T02:21:00.077Z,99.01
2022-07-26T02:26:01.175Z,99.91
2022-07-26T02:31:03.344Z,99.99
2022-07-26T02:36:03.429Z,99.99
2022-07-26T02:41:02.579Z,99.99
2022-07-26T02:46:04.746Z,99.99
2022-07-26T02:51:04.887Z,99.99
2022-07-26T02:56:05.014Z,99.99
2022-07-26T03:01:04.148Z,99.99
2022-07-26T03:06:05.313Z,99.99
2022-07-26T03:11:10.340Z,99.99
2022-07-26T03:16:06.486Z,99.99
2022-07-26T03:21:08.693Z,99.99
2022-07-26T03:26:07.826Z,99.99
2022-07-26T03:31:09.028Z,99.99
2022-07-26T03:36:11.471Z,99.99
2022-07-26T03:41:13.668Z,98.36
2022-07-26T03:46:11.073Z,98.86
2022-07-26T03:51:12.226Z,98.00
2022-07-26T03:56:13.362Z,98.30
2022-07-26T04:01:14.773Z,99.99
2022-07-26T04:06:15.882Z,99.99
2022-07-26T04:11:18.009Z,99.99
2022-07-26T04:16:17.139Z,99.99
2022-07-26T04:21:18.263Z,99.91
2022-07-26T04:26:19.383Z,97.41
2022-07-26T04:31:20.598Z,94.55
2022-07-26T04:36:22.721Z,93.90
2022-07-26T04:41:22.831Z,91.85
2022-07-26T04:46:22.057Z,90.50
2022-07-26T04:51:23.218Z,87.62
2022-07-26T04:56:25.462Z,86.18
2022-07-26T05:01:24.655Z,88.40
2022-07-26T05:06:25.798Z,89.45
2022-07-26T05:11:26.966Z,89.45
2022-07-26T05:16:28.194Z,88.80
2022-07-26T05:21:29.285Z,88.75
2022-07-26T05:26:31.432Z,88.75
2022-07-26T05:31:30.631Z,88.95
2022-07-26T05:36:32.744Z,90.69
2022-07-26T05:41:31.891Z,91.89
2022-07-26T05:46:33.059Z,91.80
2022-07-26T05:51:35.200Z,92.20
2022-07-26T05:56:34.305Z,94.25
2022-07-26T06:01:35.418Z,94.85
2022-07-26T06:06:35.169Z,94.40
2022-07-26T06:11:38.302Z,92.61
2022-07-26T06:16:38.497Z,90.91
2022-07-26T06:21:38.623Z,92.01
2022-07-26T06:26:37.722Z,92.31
2022-07-26T06:31:38.908Z,92.85
2022-07-26T06:36:40.011Z,91.25
2022-07-26T06:41:41.186Z,93.20
2022-07-26T06:46:44.326Z,94.76
2022-07-26T06:51:43.110Z,93.21
2022-07-26T06:56:46.234Z,90.91
2022-07-26T07:01:51.426Z,91.91
2022-07-26T07:06:47.424Z,91.27
2022-07-26T07:11:48.889Z,91.86
2022-07-26T07:16:47.845Z,92.97
2022-07-26T07:21:47.024Z,91.72
2022-07-26T07:26:48.223Z,88.87
2022-07-26T07:31:53.412Z,85.89
2022-07-26T07:36:49.642Z,86.79
2022-07-26T07:41:51.785Z,85.55
2022-07-26T07:46:50.894Z,86.95
2022-07-26T07:51:52.023Z,85.41
2022-07-26T07:56:53.149Z,85.93
2022-07-26T08:01:55.268Z,83.57
2022-07-26T08:06:54.531Z,83.51
2022-07-26T08:11:55.802Z,86.07
2022-07-26T08:16:56.537Z,88.69
2022-07-26T08:21:55.621Z,87.09
2022-07-26T08:26:56.353Z,87.34
2022-07-26T08:31:57.537Z,90.17
2022-07-26T08:37:15.806Z,90.53
2022-07-26T08:41:58.763Z,92.08
2022-07-26T08:47:00.023Z,92.22
2022-07-26T08:52:02.153Z,97.81
2022-07-26T08:57:05.348Z,96.21
2022-07-26T09:02:03.459Z,96.88
2022-07-26T09:07:03.618Z,93.71
2022-07-26T09:12:03.760Z,94.36
2022-07-26T09:17:04.095Z,93.62
2022-07-26T09:22:06.034Z,90.94
2022-07-26T09:27:03.294Z,88.18
2022-07-26T09:32:04.640Z,90.23
2022-07-26T09:37:11.364Z,88.29
2022-07-26T09:42:26.732Z,86.87
2022-07-26T09:47:06.843Z,86.07
2022-07-26T09:52:06.046Z,82.29
2022-07-26T09:57:06.285Z,83.31
2022-07-26T10:02:09.457Z,80.05
2022-07-26T10:07:10.711Z,80.36
2022-07-26T10:12:09.843Z,76.29
2022-07-26T10:17:09.996Z,77.98
2022-07-26T10:22:10.535Z,75.59
2022-07-26T10:27:11.670Z,74.66
2022-07-26T10:32:13.787Z,73.80
2022-07-26T10:37:12.899Z,72.91
2022-07-26T10:42:14.025Z,72.28
2022-07-26T10:47:15.168Z,71.81
2022-07-26T10:52:16.356Z,73.47
2022-07-26T10:57:18.538Z,75.26
2022-07-26T11:02:17.772Z,72.34
2022-07-26T11:07:19.939Z,72.01
2022-07-26T11:12:20.103Z,67.38
2022-07-26T11:17:19.274Z,66.38
2022-07-26T11:22:20.499Z,67.57
2022-07-26T11:27:21.693Z,68.86
2022-07-26T11:32:23.907Z,63.04
2022-07-26T11:37:24.244Z,67.14
2022-07-26T11:42:23.386Z,67.14
2022-07-26T11:47:26.257Z,67.27
2022-07-26T11:52:25.995Z,67.31
2022-07-26T11:57:28.117Z,66.78
2022-07-26T12:02:27.261Z,63.48
2022-07-26T12:07:28.420Z,62.01
2022-07-26T12:12:29.521Z,63.48
2022-07-26T12:17:35.086Z,66.06
2022-07-26T12:22:30.693Z,63.89
2022-07-26T12:27:31.834Z,64.87
2022-07-26T12:32:33.943Z,64.84
2022-07-26T12:37:40.323Z,59.81
2022-07-26T12:42:34.624Z,60.56
2022-07-26T12:47:34.855Z,59.08
2022-07-26T12:52:34.980Z,62.12
2022-07-26T12:57:34.189Z,62.68
2022-07-26T13:02:34.055Z,62.69
2022-07-26T13:07:36.150Z,64.11
2022-07-26T13:12:35.382Z,61.71
2022-07-26T13:17:36.578Z,61.88
2022-07-26T13:22:37.740Z,61.78
2022-07-26T13:27:40.317Z,61.76
2022-07-26T13:32:39.889Z,57.93
2022-07-26T13:37:41.121Z,56.02
2022-07-26T13:42:42.268Z,57.51
2022-07-26T13:47:43.372Z,60.60
2022-07-26T13:52:44.580Z,52.48
2022-07-26T13:57:56.208Z,56.91
2022-07-26T14:02:45.833Z,56.00
2022-07-26T14:07:47.053Z,57.31
2022-07-26T14:12:48.250Z,59.00
2022-07-26T14:17:49.438Z,59.04
2022-07-26T14:22:50.632Z,55.94
2022-07-26T14:27:51.830Z,57.09
2022-07-26T14:32:54.008Z,60.81
2022-07-26T14:37:53.321Z,64.64
2022-07-26T14:42:54.540Z,62.96
2022-07-26T14:47:56.747Z,59.67
2022-07-26T14:52:56.859Z,58.22
2022-07-26T14:57:56.092Z,62.33
2022-07-26T15:02:57.306Z,63.25
2022-07-26T15:08:01.611Z,62.63
2022-07-26T15:12:59.534Z,58.64
2022-07-26T15:17:58.697Z,61.85
2022-07-26T15:22:59.962Z,57.09
2022-07-26T15:28:03.072Z,59.11
2022-07-26T15:33:02.239Z,58.02
2022-07-26T15:38:03.444Z,59.33
2022-07-26T15:43:04.709Z,58.89
2022-07-26T15:48:14.927Z,58.73
2022-07-26T15:53:05.306Z,61.30
2022-07-26T15:58:06.488Z,55.77
2022-07-26T16:03:07.591Z,54.83
2022-07-26T16:08:08.797Z,53.09
2022-07-26T16:13:09.992Z,51.79
2022-07-26T16:18:12.217Z,53.55
2022-07-26T16:23:11.363Z,51.59
2022-07-26T16:28:12.496Z,50.49
2022-07-26T16:33:13.624Z,48.01
2022-07-26T16:38:14.756Z,48.63
2022-07-26T16:43:19.878Z,51.12
2022-07-26T16:48:18.011Z,53.93
2022-07-26T16:53:17.126Z,57.49
2022-07-26T16:58:19.255Z,58.53
2022-07-26T17:03:18.378Z,60.10
2022-07-26T17:08:20.485Z,61.87
2022-07-26T17:13:19.604Z,63.64
2022-07-26T17:18:20.712Z,63.15
2022-07-26T17:23:21.828Z,63.34
2022-07-26T17:28:23.971Z,62.88
2022-07-26T17:33:24.143Z,65.16
2022-07-26T17:38:23.294Z,66.08
2022-07-26T17:43:24.535Z,67.67
2022-07-26T17:48:24.516Z,67.27
2022-07-26T17:53:34.028Z,66.78
2022-07-26T17:58:26.672Z,70.25
2022-07-26T18:03:26.837Z,72.86
2022-07-26T18:08:27.205Z,72.20
2022-07-26T18:13:26.422Z,72.04
2022-07-26T18:18:27.593Z,72.97
2022-07-26T18:23:28.727Z,71.38
2022-07-26T18:28:29.849Z,73.77
2022-07-26T18:33:31.697Z,72.08
2022-07-26T18:38:30.976Z,72.64
2022-07-26T18:43:33.132Z,74.73
2022-07-26T18:48:32.292Z,76.56
2022-07-26T18:53:31.814Z,77.00
2022-07-26T18:58:33.919Z,76.73
2022-07-26T19:03:36.094Z,75.04
2022-07-26T19:08:33.217Z,75.44
2022-07-26T19:13:35.368Z,76.43
2022-07-26T19:18:34.517Z,74.64
2022-07-26T19:23:37.673Z,74.34
2022-07-26T19:28:37.006Z,74.74
2022-07-26T19:33:38.165Z,75.48
2022-07-26T19:38:40.317Z,76.01
2022-07-26T19:43:40.467Z,76.21
2022-07-26T19:48:40.674Z,77.25
2022-07-26T19:53:39.838Z,76.75
2022-07-26T19:58:41.005Z,76.65
2022-07-26T20:03:43.172Z,76.45
2022-07-26T20:08:42.318Z,76.11
2022-07-26T20:13:46.441Z,76.54
2022-07-26T20:18:43.548Z,76.54
2022-07-26T20:23:45.672Z,77.18
2022-07-26T20:28:44.819Z,79.22
2022-07-26T20:33:46.938Z,79.02
2022-07-26T20:38:51.120Z,80.15
2022-07-26T20:43:47.006Z,81.29
2022-07-26T20:48:48.056Z,82.13
2022-07-26T20:53:48.201Z,82.99
2022-07-26T20:58:48.298Z,83.37
2022-07-26T21:03:48.431Z,83.47
2022-07-26T21:08:47.629Z,83.83
2022-07-26T21:13:48.746Z,85.37
2022-07-26T21:18:52.677Z,86.13
2022-07-26T21:23:52.362Z,85.77
2022-07-26T21:28:51.465Z,78.23
2022-07-26T21:33:52.582Z,75.52
2022-07-26T21:38:53.786Z,74.93
2022-07-26T21:43:55.937Z,74.03
2022-07-26T21:48:55.087Z,73.93
2022-07-26T21:53:56.205Z,76.67
2022-07-26T21:58:59.369Z,79.34
2022-07-26T22:03:57.496Z,78.04
2022-07-26T22:09:04.583Z,79.88
2022-07-26T22:14:00.713Z,82.03
2022-07-26T22:18:58.855Z,82.97
2022-07-26T22:23:59.466Z,83.03
2022-07-26T22:29:02.648Z,84.43
2022-07-26T22:34:01.776Z,85.68
2022-07-26T22:39:02.935Z,86.12
2022-07-26T22:44:04.057Z,86.72
2022-07-26T22:49:05.211Z,87.32
2022-07-26T22:54:05.146Z,86.32
2022-07-26T22:59:07.266Z,88.53
2022-07-26T23:04:06.494Z,89.78
2022-07-26T23:09:07.014Z,89.58
2022-07-26T23:14:08.125Z,88.53
2022-07-26T23:19:10.577Z,89.47
2022-07-26T23:24:09.815Z,89.17
2022-07-26T23:29:12.327Z,89.72
2022-07-26T23:34:12.678Z,90.06
2022-07-26T23:39:12.171Z,91.17
2022-07-26T23:44:11.487Z,91.47
2022-07-26T23:49:13.052Z,91.97
2022-07-26T23:54:12.467Z,92.66
2022-07-26T23:59:14.020Z,92.06
